sensor_id;sensor_type;location;lat;lon;timestamp;pressure;altitude;pressure_sealevel;temperature;humidity
47260;BME280;32999;52.412;4.890;2023-04-09T00:00:43;102677.94;;;9.77;100.00
47260;BME280;32999;52.412;4.890;2023-04-09T00:05:44;102717.25;;;10.05;100.00
47260;BME280;32999;52.412;4.890;2023-04-09T00:10:46;102675.59;;;9.83;100.00
47260;BME280;32999;52.412;4.890;2023-04-09T00:15:49;102702.91;;;10.06;100.00
47260;BME280;32999;52.412;4.890;2023-04-09T00:20:51;102690.22;;;9.89;100.00
47260;BME280;32999;52.412;4.890;2023-04-09T00:25:53;102701.19;;;9.96;100.00
47260;BME280;32999;52.412;4.890;2023-04-09T00:30:56;102620.09;;;9.47;100.00
47260;BME280;32999;52.412;4.890;2023-04-09T00:35:58;102609.19;;;9.60;100.00
47260;BME280;32999;52.412;4.890;2023-04-09T00:41:00;102687.13;;;9.94;100.00
47260;BME280;32999;52.412;4.890;2023-04-09T00:46:03;102684.91;;;10.08;100.00
47260;BME280;32999;52.412;4.890;2023-04-09T00:51:06;102627.13;;;9.48;100.00
47260;BME280;32999;52.412;4.890;2023-04-09T00:56:10;102634.50;;;9.75;100.00
47260;BME280;32999;52.412;4.890;2023-04-09T01:01:14;102618.72;;;9.52;100.00
47260;BME280;32999;52.412;4.890;2023-04-09T01:06:32;102695.56;;;9.99;100.00
47260;BME280;32999;52.412;4.890;2023-04-09T01:11:55;102604.13;;;9.57;100.00
47260;BME280;32999;52.412;4.890;2023-04-09T01:17:04;102684.84;;;10.29;100.00
47260;BME280;32999;52.412;4.890;2023-04-09T01:22:17;102682.97;;;10.20;100.00
47260;BME280;32999;52.412;4.890;2023-04-09T01:27:21;102675.16;;;10.38;100.00
47260;BME280;32999;52.412;4.890;2023-04-09T01:32:28;102615.88;;;10.13;100.00
47260;BME280;32999;52.412;4.890;2023-04-09T01:37:31;102625.75;;;10.32;100.00
47260;BME280;32999;52.412;4.890;2023-04-09T01:42:34;102604.94;;;10.36;100.00
47260;BME280;32999;52.412;4.890;2023-04-09T01:47:39;102677.22;;;10.82;100.00
47260;BME280;32999;52.412;4.890;2023-04-09T01:52:41;102589.00;;;9.96;100.00
47260;BME280;32999;52.412;4.890;2023-04-09T01:57:43;102677.66;;;10.49;100.00
47260;BME280;32999;52.412;4.890;2023-04-09T02:02:54;102618.53;;;9.84;100.00
47260;BME280;32999;52.412;4.890;2023-04-09T02:07:58;102670.63;;;10.57;100.00
47260;BME280;32999;52.412;4.890;2023-04-09T02:13:02;102614.22;;;10.22;100.00
47260;BME280;32999;52.412;4.890;2023-04-09T02:18:19;102654.25;;;10.89;100.00
47260;BME280;32999;52.412;4.890;2023-04-09T02:23:22;102669.91;;;10.46;100.00
47260;BME280;32999;52.412;4.890;2023-04-09T02:28:24;102654.59;;;10.57;100.00
47260;BME280;32999;52.412;4.890;2023-04-09T02:33:27;102626.72;;;10.12;100.00
47260;BME280;32999;52.412;4.890;2023-04-09T02:38:28;102508.56;;;9.41;100.00
47260;BME280;32999;52.412;4.890;2023-04-09T02:43:30;102624.97;;;9.92;100.00
47260;BME280;32999;52.412;4.890;2023-04-09T02:48:33;102597.44;;;9.81;100.00
47260;BME280;32999;52.412;4.890;2023-04-09T02:53:35;102637.16;;;10.34;100.00
47260;BME280;32999;52.412;4.890;2023-04-09T02:58:40;102551.03;;;9.92;100.00
47260;BME280;32999;52.412;4.890;2023-04-09T03:03:43;102631.66;;;10.45;100.00
47260;BME280;32999;52.412;4.890;2023-04-09T03:08:45;102642.34;;;10.55;100.00
47260;BME280;32999;52.412;4.890;2023-04-09T03:13:46;102617.16;;;10.48;100.00
47260;BME280;32999;52.412;4.890;2023-04-09T03:18:50;102610.38;;;10.73;100.00
47260;BME280;32999;52.412;4.890;2023-04-09T03:23:53;102514.94;;;10.27;100.00
47260;BME280;32999;52.412;4.890;2023-04-09T03:28:54;102599.88;;;10.99;100.00
47260;BME280;32999;52.412;4.890;2023-04-09T03:33:57;102602.13;;;10.37;100.00
47260;BME280;32999;52.412;4.890;2023-04-09T03:38:59;102563.72;;;10.09;100.00
47260;BME280;32999;52.412;4.890;2023-04-09T03:44:01;102597.50;;;10.39;100.00
47260;BME280;32999;52.412;4.890;2023-04-09T03:49:04;102592.41;;;10.07;100.00
47260;BME280;32999;52.412;4.890;2023-04-09T03:54:06;102478.69;;;9.76;100.00
47260;BME280;32999;52.412;4.890;2023-04-09T03:59:07;102491.47;;;9.82;100.00
47260;BME280;32999;52.412;4.890;2023-04-09T04:04:11;102594.66;;;10.12;100.00
47260;BME280;32999;52.412;4.890;2023-04-09T04:09:12;102541.34;;;9.91;100.00
47260;BME280;32999;52.412;4.890;2023-04-09T04:14:14;102583.56;;;10.36;100.00
47260;BME280;32999;52.412;4.890;2023-04-09T04:19:18;102540.94;;;9.96;100.00
47260;BME280;32999;52.412;4.890;2023-04-09T04:24:20;102591.28;;;10.29;100.00
47260;BME280;32999;52.412;4.890;2023-04-09T04:29:21;102478.94;;;9.73;100.00
47260;BME280;32999;52.412;4.890;2023-04-09T04:34:28;102548.81;;;10.26;100.00
47260;BME280;32999;52.412;4.890;2023-04-09T04:39:30;102587.00;;;10.75;100.00
47260;BME280;32999;52.412;4.890;2023-04-09T04:44:31;102514.59;;;10.49;100.00
47260;BME280;32999;52.412;4.890;2023-04-09T04:49:37;102546.09;;;10.55;100.00
47260;BME280;32999;52.412;4.890;2023-04-09T04:54:38;102589.59;;;11.04;100.00
47260;BME280;32999;52.412;4.890;2023-04-09T04:59:40;102533.72;;;10.91;100.00
47260;BME280;32999;52.412;4.890;2023-04-09T05:04:43;102583.28;;;10.95;100.00
47260;BME280;32999;52.412;4.890;2023-04-09T05:09:45;102502.69;;;10.71;100.00
47260;BME280;32999;52.412;4.890;2023-04-09T05:14:47;102546.72;;;10.86;100.00
47260;BME280;32999;52.412;4.890;2023-04-09T05:19:51;102589.63;;;11.31;100.00
47260;BME280;32999;52.412;4.890;2023-04-09T05:24:53;102590.72;;;11.38;100.00
47260;BME280;32999;52.412;4.890;2023-04-09T05:29:55;102593.59;;;11.17;100.00
47260;BME280;32999;52.412;4.890;2023-04-09T05:34:58;102588.72;;;11.13;100.00
47260;BME280;32999;52.412;4.890;2023-04-09T05:40:00;102589.63;;;11.31;100.00
47260;BME280;32999;52.412;4.890;2023-04-09T05:45:01;102575.28;;;10.85;100.00
47260;BME280;32999;52.412;4.890;2023-04-09T05:50:05;102599.22;;;11.24;100.00
47260;BME280;32999;52.412;4.890;2023-04-09T05:55:08;102586.88;;;11.13;100.00
47260;BME280;32999;52.412;4.890;2023-04-09T06:00:11;102559.41;;;10.74;100.00
47260;BME280;32999;52.412;4.890;2023-04-09T06:05:14;102568.47;;;10.54;100.00
47260;BME280;32999;52.412;4.890;2023-04-09T06:10:16;102609.66;;;10.80;100.00
47260;BME280;32999;52.412;4.890;2023-04-09T06:15:18;102522.09;;;9.59;100.00
47260;BME280;32999;52.412;4.890;2023-04-09T06:20:21;102625.28;;;10.66;100.00
47260;BME280;32999;52.412;4.890;2023-04-09T06:25:23;102572.16;;;10.34;100.00
47260;BME280;32999;52.412;4.890;2023-04-09T06:30:25;102628.88;;;10.37;100.00
47260;BME280;32999;52.412;4.890;2023-04-09T06:35:28;102625.47;;;10.45;100.00
47260;BME280;32999;52.412;4.890;2023-04-09T06:40:30;102597.31;;;10.41;100.00
47260;BME280;32999;52.412;4.890;2023-04-09T06:45:32;102625.88;;;10.50;100.00
47260;BME280;32999;52.412;4.890;2023-04-09T06:50:35;102580.16;;;9.95;100.00
47260;BME280;32999;52.412;4.890;2023-04-09T06:55:37;102632.34;;;10.57;100.00
47260;BME280;32999;52.412;4.890;2023-04-09T07:00:38;102609.81;;;10.69;100.00
47260;BME280;32999;52.412;4.890;2023-04-09T07:05:42;102585.59;;;10.71;100.00
47260;BME280;32999;52.412;4.890;2023-04-09T07:10:43;102564.84;;;10.07;100.00
47260;BME280;32999;52.412;4.890;2023-04-09T07:15:46;102551.19;;;9.81;100.00
47260;BME280;32999;52.412;4.890;2023-04-09T07:20:50;102460.69;;;9.87;100.00
47260;BME280;32999;52.412;4.890;2023-04-09T07:25:53;102623.66;;;11.11;100.00
47260;BME280;32999;52.412;4.890;2023-04-09T07:30:59;102558.34;;;10.95;100.00
47260;BME280;32999;52.412;4.890;2023-04-09T07:36:05;102626.41;;;11.19;100.00
47260;BME280;32999;52.412;4.890;2023-04-09T07:41:10;102649.28;;;11.41;100.00
47260;BME280;32999;52.412;4.890;2023-04-09T07:46:17;102554.00;;;10.94;100.00
47260;BME280;32999;52.412;4.890;2023-04-09T07:51:23;102612.28;;;11.37;100.00
47260;BME280;32999;52.412;4.890;2023-04-09T07:56:25;102612.78;;;11.40;100.00
47260;BME280;32999;52.412;4.890;2023-04-09T08:01:29;102553.00;;;10.95;100.00
47260;BME280;32999;52.412;4.890;2023-04-09T08:06:32;102601.00;;;11.06;100.00
47260;BME280;32999;52.412;4.890;2023-04-09T08:11:35;102607.09;;;11.25;100.00
47260;BME280;32999;52.412;4.890;2023-04-09T08:16:38;102619.97;;;11.40;100.00
47260;BME280;32999;52.412;4.890;2023-04-09T08:21:46;102629.19;;;11.37;100.00
47260;BME280;32999;52.412;4.890;2023-04-09T08:27:03;102623.22;;;11.43;100.00
47260;BME280;32999;52.412;4.890;2023-04-09T08:32:05;102536.44;;;10.81;100.00
47260;BME280;32999;52.412;4.890;2023-04-09T08:37:08;102522.06;;;10.45;100.00
47260;BME280;32999;52.412;4.890;2023-04-09T08:42:10;102626.91;;;10.39;100.00
47260;BME280;32999;52.412;4.890;2023-04-09T08:47:15;102613.13;;;10.90;100.00
47260;BME280;32999;52.412;4.890;2023-04-09T08:52:18;102622.91;;;11.19;100.00
47260;BME280;32999;52.412;4.890;2023-04-09T08:57:36;102560.72;;;11.07;100.00
47260;BME280;32999;52.412;4.890;2023-04-09T09:02:38;102561.81;;;10.68;100.00
47260;BME280;32999;52.412;4.890;2023-04-09T09:08:01;102559.06;;;10.40;100.00
47260;BME280;32999;52.412;4.890;2023-04-09T09:13:15;102605.00;;;10.82;100.00
47260;BME280;32999;52.412;4.890;2023-04-09T09:18:17;102543.72;;;10.52;100.00
47260;BME280;32999;52.412;4.890;2023-04-09T09:23:33;102556.09;;;10.53;100.00
47260;BME280;32999;52.412;4.890;2023-04-09T09:28:35;102575.00;;;10.88;100.00
47260;BME280;32999;52.412;4.890;2023-04-09T09:33:38;102631.53;;;11.40;100.00
47260;BME280;32999;52.412;4.890;2023-04-09T09:38:55;102611.78;;;11.69;100.00
47260;BME280;32999;52.412;4.890;2023-04-09T09:43:57;102587.00;;;11.39;100.00
47260;BME280;32999;52.412;4.890;2023-04-09T09:48:58;102617.69;;;11.72;100.00
47260;BME280;32999;52.412;4.890;2023-04-09T09:54:02;102584.91;;;12.23;100.00
47260;BME280;32999;52.412;4.890;2023-04-09T09:59:06;102604.06;;;12.98;100.00
47260;BME280;32999;52.412;4.890;2023-04-09T10:04:13;102564.09;;;13.21;100.00
47260;BME280;32999;52.412;4.890;2023-04-09T10:09:17;102566.59;;;13.65;100.00
47260;BME280;32999;52.412;4.890;2023-04-09T10:15:40;102558.38;;;13.58;100.00
47260;BME280;32999;52.412;4.890;2023-04-09T10:19:54;102517.16;;;12.65;100.00
47260;BME280;32999;52.412;4.890;2023-04-09T10:25:13;102524.00;;;12.85;100.00
47260;BME280;32999;52.412;4.890;2023-04-09T10:30:31;102547.03;;;13.38;100.00
47260;BME280;32999;52.412;4.890;2023-04-09T10:35:33;102559.63;;;13.30;100.00
47260;BME280;32999;52.412;4.890;2023-04-09T10:40:39;102412.00;;;13.04;100.00
47260;BME280;32999;52.412;4.890;2023-04-09T10:45:41;102436.97;;;13.79;100.00
47260;BME280;32999;52.412;4.890;2023-04-09T10:50:43;102465.00;;;13.60;100.00
47260;BME280;32999;52.412;4.890;2023-04-09T10:55:48;102511.41;;;14.90;100.00
47260;BME280;32999;52.412;4.890;2023-04-09T11:00:50;102464.94;;;14.57;100.00
47260;BME280;32999;52.412;4.890;2023-04-09T11:05:56;102512.53;;;15.66;100.00
47260;BME280;32999;52.412;4.890;2023-04-09T11:11:01;102425.41;;;16.70;100.00
47260;BME280;32999;52.412;4.890;2023-04-09T11:16:05;102524.50;;;15.63;100.00
47260;BME280;32999;52.412;4.890;2023-04-09T11:21:08;102504.94;;;16.82;100.00
47260;BME280;32999;52.412;4.890;2023-04-09T11:26:14;102440.31;;;15.61;100.00
47260;BME280;32999;52.412;4.890;2023-04-09T11:31:16;102404.91;;;15.19;100.00
47260;BME280;32999;52.412;4.890;2023-04-09T11:36:17;102388.13;;;15.54;100.00
47260;BME280;32999;52.412;4.890;2023-04-09T11:41:32;102468.03;;;16.89;100.00
47260;BME280;32999;52.412;4.890;2023-04-09T11:46:34;102446.78;;;18.08;100.00
47260;BME280;32999;52.412;4.890;2023-04-09T11:51:36;102457.59;;;18.29;100.00
47260;BME280;32999;52.412;4.890;2023-04-09T11:56:40;102372.66;;;18.36;100.00
47260;BME280;32999;52.412;4.890;2023-04-09T12:01:48;102452.91;;;18.79;100.00
47260;BME280;32999;52.412;4.890;2023-04-09T12:06:50;102435.38;;;19.42;100.00
47260;BME280;32999;52.412;4.890;2023-04-09T12:11:53;102364.66;;;19.37;95.66
47260;BME280;32999;52.412;4.890;2023-04-09T12:16:55;102470.63;;;20.67;95.63
47260;BME280;32999;52.412;4.890;2023-04-09T12:21:57;102383.69;;;19.70;93.38
47260;BME280;32999;52.412;4.890;2023-04-09T12:27:00;102440.16;;;20.32;89.92
47260;BME280;32999;52.412;4.890;2023-04-09T12:32:02;102377.56;;;20.21;86.08
47260;BME280;32999;52.412;4.890;2023-04-09T12:37:04;102405.50;;;19.22;94.35
47260;BME280;32999;52.412;4.890;2023-04-09T12:42:07;102366.69;;;21.17;84.03
47260;BME280;32999;52.412;4.890;2023-04-09T12:47:08;102435.50;;;22.05;80.04
47260;BME280;32999;52.412;4.890;2023-04-09T12:52:10;102406.06;;;21.46;80.29
47260;BME280;32999;52.412;4.890;2023-04-09T12:57:14;102400.31;;;18.66;100.00
47260;BME280;32999;52.412;4.890;2023-04-09T13:02:16;102445.09;;;18.28;100.00
47260;BME280;32999;52.412;4.890;2023-04-09T13:07:18;102446.94;;;18.27;100.00
47260;BME280;32999;52.412;4.890;2023-04-09T13:12:21;102452.25;;;18.42;100.00
47260;BME280;32999;52.412;4.890;2023-04-09T13:17:23;102446.00;;;18.76;100.00
47260;BME280;32999;52.412;4.890;2023-04-09T13:22:25;102395.88;;;17.90;100.00
47260;BME280;32999;52.412;4.890;2023-04-09T13:27:28;102398.13;;;18.49;100.00
47260;BME280;32999;52.412;4.890;2023-04-09T13:32:30;102302.50;;;19.68;91.22
47260;BME280;32999;52.412;4.890;2023-04-09T13:37:32;102410.09;;;19.22;99.73
47260;BME280;32999;52.412;4.890;2023-04-09T13:42:35;102356.50;;;18.15;100.00
47260;BME280;32999;52.412;4.890;2023-04-09T13:47:37;102395.72;;;17.49;95.53
47260;BME280;32999;52.412;4.890;2023-04-09T13:52:38;102399.66;;;17.67;100.00
47260;BME280;32999;52.412;4.890;2023-04-09T13:57:41;102333.75;;;17.47;100.00
47260;BME280;32999;52.412;4.890;2023-04-09T14:02:43;102380.69;;;17.89;96.13
47260;BME280;32999;52.412;4.890;2023-04-09T14:07:45;102373.06;;;17.71;91.01
47260;BME280;32999;52.412;4.890;2023-04-09T14:12:48;102305.34;;;17.30;100.00
47260;BME280;32999;52.412;4.890;2023-04-09T14:17:51;102362.97;;;17.80;100.00
47260;BME280;32999;52.412;4.890;2023-04-09T14:22:53;102341.63;;;17.21;100.00
47260;BME280;32999;52.412;4.890;2023-04-09T14:27:56;102301.69;;;16.95;100.00
47260;BME280;32999;52.412;4.890;2023-04-09T14:32:58;102281.94;;;17.16;100.00
47260;BME280;32999;52.412;4.890;2023-04-09T14:38:00;102285.09;;;16.77;100.00
47260;BME280;32999;52.412;4.890;2023-04-09T14:43:05;102205.66;;;16.50;95.04
47260;BME280;32999;52.412;4.890;2023-04-09T14:48:07;102319.22;;;16.84;96.58
47260;BME280;32999;52.412;4.890;2023-04-09T14:53:09;102255.44;;;16.26;95.12
47260;BME280;32999;52.412;4.890;2023-04-09T14:58:13;102270.22;;;16.66;99.93
47260;BME280;32999;52.412;4.890;2023-04-09T15:03:14;102304.44;;;17.23;100.00
47260;BME280;32999;52.412;4.890;2023-04-09T15:08:16;102247.94;;;16.43;100.00
47260;BME280;32999;52.412;4.890;2023-04-09T15:13:19;102224.03;;;16.40;100.00
47260;BME280;32999;52.412;4.890;2023-04-09T15:18:21;102283.19;;;16.56;96.13
47260;BME280;32999;52.412;4.890;2023-04-09T15:23:22;102288.31;;;16.51;99.56
47260;BME280;32999;52.412;4.890;2023-04-09T15:28:25;102233.38;;;15.19;100.00
47260;BME280;32999;52.412;4.890;2023-04-09T15:38:57;102216.72;;;15.16;100.00
47260;BME280;32999;52.412;4.890;2023-04-09T15:44:01;102292.00;;;16.14;100.00
47260;BME280;32999;52.412;4.890;2023-04-09T15:49:03;102196.34;;;15.65;98.37
47260;BME280;32999;52.412;4.890;2023-04-09T15:54:05;102270.13;;;16.09;96.09
47260;BME280;32999;52.412;4.890;2023-04-09T15:59:08;102196.03;;;15.16;98.19
47260;BME280;32999;52.412;4.890;2023-04-09T16:04:10;102179.81;;;15.69;100.00
47260;BME280;32999;52.412;4.890;2023-04-09T16:09:11;102194.22;;;15.61;99.49
47260;BME280;32999;52.412;4.890;2023-04-09T16:14:15;102215.22;;;15.65;100.00
47260;BME280;32999;52.412;4.890;2023-04-09T16:19:17;102246.69;;;16.09;100.00
47260;BME280;32999;52.412;4.890;2023-04-09T16:24:18;102244.41;;;15.77;95.03
47260;BME280;32999;52.412;4.890;2023-04-09T16:29:23;102156.00;;;15.13;97.08
47260;BME280;32999;52.412;4.890;2023-04-09T16:34:25;102267.53;;;15.86;100.00
47260;BME280;32999;52.412;4.890;2023-04-09T16:39:27;102153.13;;;15.00;100.00
47260;BME280;32999;52.412;4.890;2023-04-09T16:44:30;102122.72;;;14.91;100.00
47260;BME280;32999;52.412;4.890;2023-04-09T16:49:32;102225.72;;;15.60;100.00
47260;BME280;32999;52.412;4.890;2023-04-09T16:54:34;102124.50;;;14.99;100.00
47260;BME280;32999;52.412;4.890;2023-04-09T16:59:39;102243.13;;;15.73;100.00
47260;BME280;32999;52.412;4.890;2023-04-09T17:04:41;102235.63;;;15.30;100.00
47260;BME280;32999;52.412;4.890;2023-04-09T17:09:43;102234.13;;;15.43;100.00
47260;BME280;32999;52.412;4.890;2023-04-09T17:14:50;102221.63;;;15.12;100.00
47260;BME280;32999;52.412;4.890;2023-04-09T17:19:52;102169.44;;;14.98;100.00
47260;BME280;32999;52.412;4.890;2023-04-09T17:24:54;102105.47;;;14.48;100.00
47260;BME280;32999;52.412;4.890;2023-04-09T17:29:57;102216.41;;;14.96;100.00
47260;BME280;32999;52.412;4.890;2023-04-09T17:35:00;102130.19;;;14.21;100.00
47260;BME280;32999;52.412;4.890;2023-04-09T17:40:03;102154.94;;;14.16;100.00
47260;BME280;32999;52.412;4.890;2023-04-09T17:45:08;102214.28;;;14.46;100.00
47260;BME280;32999;52.412;4.890;2023-04-09T17:50:12;102237.97;;;14.50;100.00
47260;BME280;32999;52.412;4.890;2023-04-09T17:55:26;102240.78;;;14.57;100.00
47260;BME280;32999;52.412;4.890;2023-04-09T18:00:29;102211.84;;;14.28;100.00
47260;BME280;32999;52.412;4.890;2023-04-09T18:05:33;102188.50;;;14.20;100.00
47260;BME280;32999;52.412;4.890;2023-04-09T18:10:35;102245.91;;;14.36;100.00
47260;BME280;32999;52.412;4.890;2023-04-09T18:15:38;102224.28;;;13.90;100.00
47260;BME280;32999;52.412;4.890;2023-04-09T18:20:40;102143.09;;;13.24;100.00
47260;BME280;32999;52.412;4.890;2023-04-09T18:25:43;102196.16;;;13.70;100.00
47260;BME280;32999;52.412;4.890;2023-04-09T18:30:46;102133.69;;;13.28;100.00
47260;BME280;32999;52.412;4.890;2023-04-09T18:35:48;102149.59;;;13.38;100.00
47260;BME280;32999;52.412;4.890;2023-04-09T18:40:50;102206.28;;;13.59;100.00
47260;BME280;32999;52.412;4.890;2023-04-09T18:45:53;102112.09;;;12.98;100.00
47260;BME280;32999;52.412;4.890;2023-04-09T18:50:55;102218.69;;;13.60;100.00
47260;BME280;32999;52.412;4.890;2023-04-09T18:55:56;102227.78;;;13.59;100.00
47260;BME280;32999;52.412;4.890;2023-04-09T19:01:08;102154.03;;;12.99;100.00
47260;BME280;32999;52.412;4.890;2023-04-09T19:06:14;102197.63;;;13.09;100.00
47260;BME280;32999;52.412;4.890;2023-04-09T19:11:17;102193.25;;;12.91;100.00
47260;BME280;32999;52.412;4.890;2023-04-09T19:16:20;102267.75;;;13.06;100.00
47260;BME280;32999;52.412;4.890;2023-04-09T19:21:21;102244.28;;;12.83;100.00
47260;BME280;32999;52.412;4.890;2023-04-09T19:26:23;102250.94;;;12.71;100.00
47260;BME280;32999;52.412;4.890;2023-04-09T19:31:27;102165.03;;;12.14;100.00
47260;BME280;32999;52.412;4.890;2023-04-09T19:36:29;102118.66;;;11.64;100.00
47260;BME280;32999;52.412;4.890;2023-04-09T19:41:33;102128.50;;;11.55;100.00
47260;BME280;32999;52.412;4.890;2023-04-09T19:46:42;102230.72;;;12.18;100.00
47260;BME280;32999;52.412;4.890;2023-04-09T19:51:47;102220.63;;;12.04;100.00
47260;BME280;32999;52.412;4.890;2023-04-09T19:56:49;102244.03;;;11.94;100.00
47260;BME280;32999;52.412;4.890;2023-04-09T20:01:53;102191.63;;;11.66;100.00
47260;BME280;32999;52.412;4.890;2023-04-09T20:06:54;102173.97;;;11.47;100.00
47260;BME280;32999;52.412;4.890;2023-04-09T20:11:56;102220.78;;;11.69;100.00
47260;BME280;32999;52.412;4.890;2023-04-09T20:17:07;102170.59;;;11.37;100.00
47260;BME280;32999;52.412;4.890;2023-04-09T20:22:09;102214.06;;;11.65;100.00
47260;BME280;32999;52.412;4.890;2023-04-09T20:27:11;102166.09;;;11.45;100.00
47260;BME280;32999;52.412;4.890;2023-04-09T20:32:14;102157.06;;;11.38;100.00
47260;BME280;32999;52.412;4.890;2023-04-09T20:37:16;102200.66;;;11.65;100.00
47260;BME280;32999;52.412;4.890;2023-04-09T20:42:18;102133.16;;;11.11;100.00
47260;BME280;32999;52.412;4.890;2023-04-09T20:47:21;102124.13;;;11.12;100.00
47260;BME280;32999;52.412;4.890;2023-04-09T20:52:23;102172.13;;;11.47;100.00
47260;BME280;32999;52.412;4.890;2023-04-09T20:57:27;102212.75;;;11.69;100.00
47260;BME280;32999;52.412;4.890;2023-04-09T21:02:30;102170.50;;;11.54;100.00
47260;BME280;32999;52.412;4.890;2023-04-09T21:07:32;102160.44;;;11.48;100.00
47260;BME280;32999;52.412;4.890;2023-04-09T21:12:34;102183.03;;;11.80;100.00
47260;BME280;32999;52.412;4.890;2023-04-09T21:17:37;102183.34;;;11.77;100.00
47260;BME280;32999;52.412;4.890;2023-04-09T21:22:38;102172.09;;;11.73;100.00
47260;BME280;32999;52.412;4.890;2023-04-09T21:27:40;102201.81;;;11.88;100.00
47260;BME280;32999;52.412;4.890;2023-04-09T21:32:43;102191.44;;;11.85;100.00
47260;BME280;32999;52.412;4.890;2023-04-09T21:37:45;102108.88;;;11.38;100.00
47260;BME280;32999;52.412;4.890;2023-04-09T21:42:47;102173.16;;;11.88;100.00
47260;BME280;32999;52.412;4.890;2023-04-09T21:47:50;102089.56;;;11.27;100.00
47260;BME280;32999;52.412;4.890;2023-04-09T21:52:52;102178.09;;;11.67;100.00
47260;BME280;32999;52.412;4.890;2023-04-09T21:58:38;102174.00;;;11.81;100.00
47260;BME280;32999;52.412;4.890;2023-04-09T22:03:48;102171.84;;;11.92;100.00
47260;BME280;32999;52.412;4.890;2023-04-09T22:08:49;102078.06;;;11.34;100.00
47260;BME280;32999;52.412;4.890;2023-04-09T22:13:51;102160.94;;;11.78;100.00
47260;BME280;32999;52.412;4.890;2023-04-09T22:18:54;102082.75;;;11.40;100.00
47260;BME280;32999;52.412;4.890;2023-04-09T22:23:56;102070.03;;;11.34;100.00
47260;BME280;32999;52.412;4.890;2023-04-09T22:28:58;102163.97;;;11.91;100.00
47260;BME280;32999;52.412;4.890;2023-04-09T22:34:01;102137.88;;;11.85;100.00
47260;BME280;32999;52.412;4.890;2023-04-09T22:39:03;102091.88;;;11.64;100.00
47260;BME280;32999;52.412;4.890;2023-04-09T22:44:05;102156.94;;;11.82;100.00
47260;BME280;32999;52.412;4.890;2023-04-09T22:49:10;102130.16;;;11.90;100.00
47260;BME280;32999;52.412;4.890;2023-04-09T22:54:11;102128.47;;;11.81;100.00
47260;BME280;32999;52.412;4.890;2023-04-09T22:59:13;102139.91;;;11.99;100.00
47260;BME280;32999;52.412;4.890;2023-04-09T23:04:16;102023.56;;;11.51;100.00
47260;BME280;32999;52.412;4.890;2023-04-09T23:09:23;102131.38;;;12.04;100.00
47260;BME280;32999;52.412;4.890;2023-04-09T23:14:24;102043.69;;;11.55;100.00
47260;BME280;32999;52.412;4.890;2023-04-09T23:19:28;102003.28;;;11.41;100.00
47260;BME280;32999;52.412;4.890;2023-04-09T23:24:29;102129.16;;;11.83;100.00
47260;BME280;32999;52.412;4.890;2023-04-09T23:29:31;102134.91;;;11.62;100.00
47260;BME280;32999;52.412;4.890;2023-04-09T23:34:34;102107.28;;;11.62;100.00
47260;BME280;32999;52.412;4.890;2023-04-09T23:39:36;102007.16;;;10.96;100.00
47260;BME280;32999;52.412;4.890;2023-04-09T23:44:38;102106.22;;;11.46;100.00
47260;BME280;32999;52.412;4.890;2023-04-09T23:49:41;102063.66;;;11.27;100.00
47260;BME280;32999;52.412;4.890;2023-04-09T23:54:47;102097.19;;;11.47;100.00
47260;BME280;32999;52.412;4.890;2023-04-09T23:59:50;102097.69;;;11.51;100.00
